Terminal Aerodrome Forecast
Issued by NWS

Home | Current Version | Previous Version | Text Only | Print | Product List | Glossary On
Versions: 1 2 3 4 5 6 7 8 9 10 11 12 13 14 15 16 17 18 19
841
FTPA31 PHFO 230542
TAFHMK
TAF
PHMK 230542Z 2306/2406 04015G24KT P6SM VCSH SCT025 BKN045
      TEMPO 2306/2308 P6SM BKN020
     FM230800 04012G20KT P6SM VCSH SCT025 BKN045
     FM231900 03018G28KT P6SM -SHRA SCT025 BKN040=

USA.gov is the U.S. government's official web portal to all federal, state and local government web resources and services.